Terminal Aerodrome Forecast
Issued by NWS

Home | Current Version | Previous Version | Text Only | Print | Product List | Glossary On
Versions: 1 2 3 4 5 6 7 8 9 10 11 12 13 14 15 16 17 18 19 20 21 22 23
000
FTUS42 KGSP 030200 AAC
TAFAND
TAF AMD
KAND 030228Z 0302/0324 18008KT P6SM SCT060 BKN200
     FM030400 VRB03KT P6SM SCT060 BKN200
     FM031300 24005KT P6SM SCT060 BKN250
     FM031700 23005KT P6SM SCT050 BKN250 PROB30 0319/0323 TSRA
      BKN040CB=

USA.gov is the U.S. government's official web portal to all federal, state and local government web resources and services.